Time;durP1;ratioP1;P1;durP2;ratioP2;P2;SDS_P1;SDS_P2;PMS_P1;PMS_P2;Temp;Humidity;BMP_temperature;BMP_pressure;BME280_temperature;BME280_humidity;BME280_pressure;Samples;Min_cycle;Max_cycle;Signal;HPM_P1;HPM_P2
2022/05/19 00:01:01;;;;;;;15.30;14.70;;;;;;;;;;5092052;28;20194;-77
2022/05/19 00:03:24;;;;;;;14.40;13.90;;;;;;;;;;5091983;28;20201;-76
2022/05/19 00:05:51;;;;;;;14.50;14.00;;;;;;;;;;5092036;28;20197;-77
2022/05/19 00:08:18;;;;;;;14.50;14.00;;;;;;;;;;5092342;28;20198;-76
2022/05/19 00:10:44;;;;;;;14.30;13.80;;;;;;;;;;5092047;28;20297;-77
2022/05/19 00:13:14;;;;;;;14.40;13.90;;;;;;;;;;5091945;28;20210;-76
2022/05/19 00:15:42;;;;;;;14.23;13.73;;;;;;;;;;5092241;28;20189;-76
2022/05/19 00:18:08;;;;;;;14.80;14.20;;;;;;;;;;5092258;28;20229;-76
2022/05/19 00:20:35;;;;;;;14.43;13.93;;;;;;;;;;5092200;28;20276;-76
2022/05/19 00:23:02;;;;;;;15.00;14.40;;;;;;;;;;5091811;28;20660;-77
2022/05/19 00:25:30;;;;;;;15.10;14.50;;;;;;;;;;5091899;28;20663;-76
2022/05/19 00:27:56;;;;;;;15.27;14.67;;;;;;;;;;5092088;28;20675;-77
2022/05/19 00:30:23;;;;;;;14.30;13.80;;;;;;;;;;5092108;28;20194;-77
2022/05/19 00:32:51;;;;;;;14.60;14.00;;;;;;;;;;5091852;28;20197;-76
2022/05/19 00:35:18;;;;;;;14.30;13.80;;;;;;;;;;5091654;28;20222;-76
2022/05/19 00:37:44;;;;;;;14.70;14.10;;;;;;;;;;5092028;28;20202;-77
2022/05/19 00:40:11;;;;;;;15.10;14.50;;;;;;;;;;5092039;28;20229;-76
2022/05/19 00:42:44;;;;;;;14.50;14.00;;;;;;;;;;5091650;28;20645;-76
2022/05/19 00:45:12;;;;;;;14.57;14.00;;;;;;;;;;5091728;28;20232;-77
2022/05/19 00:47:40;;;;;;;14.60;14.00;;;;;;;;;;5091968;28;20194;-76
2022/05/19 00:50:11;;;;;;;14.57;13.97;;;;;;;;;;5091615;28;20193;-76
2022/05/19 00:52:39;;;;;;;14.27;13.77;;;;;;;;;;5091897;28;20225;-77
2022/05/19 00:55:08;;;;;;;14.23;13.73;;;;;;;;;;5091531;28;20221;-76
2022/05/19 00:57:37;;;;;;;14.00;13.50;;;;;;;;;;5094957;28;20568;-76
2022/05/19 01:00:06;;;;;;;14.20;13.70;;;;;;;;;;5095616;28;20247;-76
2022/05/19 01:02:35;;;;;;;13.90;13.40;;;;;;;;;;5095529;28;20232;-76
2022/05/19 01:05:03;;;;;;;14.10;13.60;;;;;;;;;;5095492;28;20200;-76
2022/05/19 01:07:32;;;;;;;14.53;14.00;;;;;;;;;;5095161;28;20233;-76
2022/05/19 01:09:59;;;;;;;14.20;13.70;;;;;;;;;;5095390;28;20220;-76
2022/05/19 01:12:28;;;;;;;14.10;13.60;;;;;;;;;;5094855;28;20268;-75
2022/05/19 01:14:54;;;;;;;13.60;13.10;;;;;;;;;;5094881;28;20233;-76
2022/05/19 01:17:22;;;;;;;13.80;13.30;;;;;;;;;;5094955;28;20200;-76
2022/05/19 01:19:53;;;;;;;13.87;13.37;;;;;;;;;;5095129;28;20225;-76
2022/05/19 01:22:29;;;;;;;14.23;13.73;;;;;;;;;;5095198;28;20190;-76
2022/05/19 01:25:00;;;;;;;14.07;13.57;;;;;;;;;;5094801;28;20185;-76
2022/05/19 01:27:29;;;;;;;14.40;13.90;;;;;;;;;;5095105;28;20279;-76
2022/05/19 01:29:56;;;;;;;13.97;13.47;;;;;;;;;;5094999;28;20204;-76
2022/05/19 01:32:23;;;;;;;15.23;14.63;;;;;;;;;;5094666;28;20193;-75
2022/05/19 01:34:50;;;;;;;14.07;13.57;;;;;;;;;;5094808;28;20308;-76
2022/05/19 01:37:17;;;;;;;15.00;14.40;;;;;;;;;;5094807;28;20286;-75
2022/05/19 01:39:45;;;;;;;14.63;14.03;;;;;;;;;;5094538;28;20652;-75
2022/05/19 01:42:19;;;;;;;14.73;14.13;;;;;;;;;;5094743;28;20204;-75
2022/05/19 01:44:51;;;;;;;14.73;14.13;;;;;;;;;;5094724;28;20268;-75
2022/05/19 01:47:24;;;;;;;14.30;13.80;;;;;;;;;;5094690;28;20214;-76
2022/05/19 01:49:54;;;;;;;14.33;13.83;;;;;;;;;;5094664;28;20608;-76
2022/05/19 01:52:23;;;;;;;14.43;13.90;;;;;;;;;;5094562;28;20197;-75
2022/05/19 01:54:52;;;;;;;14.50;14.00;;;;;;;;;;5094186;28;20320;-75
2022/05/19 01:57:23;;;;;;;14.07;13.57;;;;;;;;;;5094169;28;20200;-75
2022/05/19 01:59:55;;;;;;;14.63;14.03;;;;;;;;;;5094201;28;20646;-75
2022/05/19 02:02:25;;;;;;;14.20;13.70;;;;;;;;;;5094458;28;20214;-75
2022/05/19 02:04:54;;;;;;;14.20;13.70;;;;;;;;;;5094044;28;20190;-75
2022/05/19 02:07:21;;;;;;;13.80;13.30;;;;;;;;;;5093015;28;20724;-75
2022/05/19 02:09:50;;;;;;;14.17;13.67;;;;;;;;;;5093899;28;20196;-75
2022/05/19 02:12:17;;;;;;;13.50;13.00;;;;;;;;;;5093680;28;20290;-75
2022/05/19 02:14:45;;;;;;;14.13;13.63;;;;;;;;;;5093723;28;20348;-75
2022/05/19 02:17:15;;;;;;;13.43;12.93;;;;;;;;;;5093825;28;20232;-75
2022/05/19 02:19:44;;;;;;;13.73;13.23;;;;;;;;;;5093711;28;20194;-75
2022/05/19 02:22:13;;;;;;;14.00;13.50;;;;;;;;;;5094030;28;20267;-75
2022/05/19 02:24:42;;;;;;;14.20;13.70;;;;;;;;;;5093968;28;20285;-74
2022/05/19 02:27:23;;;;;;;13.97;13.47;;;;;;;;;;5093596;28;20280;-74
2022/05/19 02:29:50;;;;;;;13.90;13.40;;;;;;;;;;5093848;28;20721;-75
2022/05/19 02:32:18;;;;;;;14.13;13.63;;;;;;;;;;5093464;28;20234;-75
2022/05/19 02:34:45;;;;;;;14.13;13.63;;;;;;;;;;5094157;28;20248;-75
2022/05/19 02:37:11;;;;;;;13.57;13.07;;;;;;;;;;5093415;28;20197;-75
2022/05/19 02:39:39;;;;;;;13.90;13.40;;;;;;;;;;5093313;28;20276;-75
2022/05/19 02:42:06;;;;;;;13.70;13.20;;;;;;;;;;5093299;28;20281;-75
2022/05/19 02:44:33;;;;;;;14.00;13.50;;;;;;;;;;5093268;28;20637;-74
2022/05/19 02:47:00;;;;;;;14.23;13.73;;;;;;;;;;5093561;28;20282;-75
2022/05/19 02:49:28;;;;;;;14.23;13.73;;;;;;;;;;5093140;28;20197;-75
2022/05/19 02:51:55;;;;;;;14.07;13.57;;;;;;;;;;5093172;28;20236;-75
2022/05/19 02:54:21;;;;;;;13.63;13.13;;;;;;;;;;5093263;28;20308;-75
2022/05/19 02:56:48;;;;;;;14.37;13.80;;;;;;;;;;5093012;28;20585;-75
2022/05/19 02:59:15;;;;;;;14.10;13.60;;;;;;;;;;5093281;28;20198;-74
2022/05/19 03:01:42;;;;;;;14.13;13.63;;;;;;;;;;5092906;28;20198;-75
2022/05/19 03:04:08;;;;;;;14.03;13.53;;;;;;;;;;5093194;28;20198;-76
2022/05/19 03:06:37;;;;;;;14.10;13.60;;;;;;;;;;5093142;28;20198;-74
2022/05/19 03:09:04;;;;;;;14.00;13.50;;;;;;;;;;5093134;28;20197;-75
2022/05/19 03:11:31;;;;;;;13.73;13.23;;;;;;;;;;5092513;28;20232;-74
2022/05/19 03:13:57;;;;;;;13.60;13.10;;;;;;;;;;5092957;28;20273;-75
2022/05/19 03:16:24;;;;;;;14.33;13.83;;;;;;;;;;5092684;28;20280;-75
2022/05/19 03:18:51;;;;;;;14.47;13.97;;;;;;;;;;5092403;28;20668;-75
2022/05/19 03:21:17;;;;;;;14.50;13.97;;;;;;;;;;5092891;28;20277;-75
2022/05/19 03:23:46;;;;;;;14.30;13.80;;;;;;;;;;5092561;28;20281;-75
2022/05/19 03:26:12;;;;;;;14.47;13.97;;;;;;;;;;5092534;28;20288;-75
2022/05/19 03:28:39;;;;;;;14.30;13.80;;;;;;;;;;5092797;28;20281;-75
2022/05/19 03:31:06;;;;;;;14.50;14.00;;;;;;;;;;5092777;28;20292;-74
2022/05/19 03:33:32;;;;;;;14.30;13.80;;;;;;;;;;5092400;28;20686;-74
2022/05/19 03:36:00;;;;;;;15.03;14.43;;;;;;;;;;5092552;28;20260;-75
2022/05/19 03:38:26;;;;;;;14.70;14.10;;;;;;;;;;5092364;28;20193;-75
2022/05/19 03:40:55;;;;;;;14.00;13.50;;;;;;;;;;5092305;28;20198;-75
2022/05/19 03:43:22;;;;;;;14.63;14.03;;;;;;;;;;5092299;28;20196;-75
2022/05/19 03:45:49;;;;;;;15.40;14.70;;;;;;;;;;5092601;28;20205;-75
2022/05/19 03:48:16;;;;;;;16.33;15.53;;;;;;;;;;5092199;28;20232;-74
2022/05/19 03:50:44;;;;;;;18.00;17.00;;;;;;;;;;5092503;28;20236;-75
2022/05/19 03:53:11;;;;;;;19.23;18.03;;;;;;;;;;5092506;28;20193;-75
2022/05/19 03:55:38;;;;;;;20.13;18.93;;;;;;;;;;5092072;28;20240;-74
2022/05/19 03:58:06;;;;;;;19.63;18.43;;;;;;;;;;5092425;28;20285;-74
2022/05/19 04:00:33;;;;;;;20.33;19.13;;;;;;;;;;5092111;28;20284;-74
2022/05/19 04:03:00;;;;;;;19.30;18.20;;;;;;;;;;5093198;28;20189;-74
2022/05/19 04:05:27;;;;;;;18.53;17.53;;;;;;;;;;5092310;28;20202;-74
2022/05/19 04:07:54;;;;;;;17.97;17.07;;;;;;;;;;5092348;28;20201;-74
2022/05/19 04:10:21;;;;;;;18.00;17.10;;;;;;;;;;5092052;28;20675;-74
2022/05/19 04:12:47;;;;;;;18.10;17.20;;;;;;;;;;5091778;28;20347;-74
2022/05/19 04:15:15;;;;;;;18.00;17.10;;;;;;;;;;5091930;28;20225;-74
2022/05/19 04:17:42;;;;;;;17.67;16.73;;;;;;;;;;5092726;28;20273;-74
2022/05/19 04:20:10;;;;;;;18.05;17.05;;;;;;;;;;5091911;28;20284;-74
2022/05/19 04:22:37;;;;;;;17.70;16.80;;;;;;;;;;5091901;28;20197;-74
2022/05/19 04:25:04;;;;;;;18.27;17.27;;;;;;;;;;5091848;28;20654;-73
2022/05/19 04:27:31;;;;;;;18.38;17.38;;;;;;;;;;5092180;28;20575;-73
2022/05/19 04:29:58;;;;;;;18.52;17.52;;;;;;;;;;5092110;28;20197;-73
2022/05/19 04:32:26;;;;;;;19.45;18.35;;;;;;;;;;5095538;28;20223;-73
2022/05/19 04:34:53;;;;;;;19.50;18.40;;;;;;;;;;5095671;28;20607;-73
2022/05/19 04:37:19;;;;;;;19.30;18.20;;;;;;;;;;5095728;28;20285;-73
2022/05/19 04:39:46;;;;;;;18.95;17.95;;;;;;;;;;5095700;28;20701;-73
2022/05/19 04:42:13;;;;;;;18.90;17.90;;;;;;;;;;5095900;28;20193;-73
2022/05/19 04:44:40;;;;;;;19.15;18.15;;;;;;;;;;5095905;28;20198;-72
2022/05/19 04:47:07;;;;;;;18.85;17.85;;;;;;;;;;5095521;28;20203;-72
2022/05/19 04:49:36;;;;;;;19.00;18.00;;;;;;;;;;5095458;28;20742;-72
2022/05/19 04:52:02;;;;;;;18.67;17.77;;;;;;;;;;5095448;28;20285;-72
2022/05/19 04:54:29;;;;;;;18.73;17.75;;;;;;;;;;5095312;28;20683;-72
2022/05/19 04:56:55;;;;;;;18.50;17.60;;;;;;;;;;5095347;28;20570;-72
2022/05/19 04:59:22;;;;;;;17.90;17.00;;;;;;;;;;5095598;28;20276;-72
2022/05/19 05:01:49;;;;;;;18.30;17.40;;;;;;;;;;5095605;28;20190;-71
2022/05/19 05:04:16;;;;;;;17.95;17.05;;;;;;;;;;5095195;28;20190;-71
2022/05/19 05:06:44;;;;;;;17.83;16.92;;;;;;;;;;5095118;28;20190;-72
2022/05/19 05:09:11;;;;;;;17.92;17.02;;;;;;;;;;5095122;28;20229;-72
2022/05/19 05:11:40;;;;;;;17.30;16.50;;;;;;;;;;5094803;28;20786;-72
2022/05/19 05:14:07;;;;;;;17.52;16.73;;;;;;;;;;5095055;28;20198;-71
2022/05/19 05:16:34;;;;;;;17.55;16.75;;;;;;;;;;5094864;28;20671;-71
2022/05/19 05:19:01;;;;;;;17.60;16.80;;;;;;;;;;5095236;28;20197;-72
2022/05/19 05:21:28;;;;;;;17.50;16.70;;;;;;;;;;5094872;28;20269;-71
2022/05/19 05:23:56;;;;;;;16.93;16.23;;;;;;;;;;5094810;28;20284;-72
2022/05/19 05:26:22;;;;;;;18.10;17.40;;;;;;;;;;5094788;28;20288;-71
2022/05/19 05:28:49;;;;;;;17.40;16.70;;;;;;;;;;5094716;28;20194;-71
2022/05/19 05:31:16;;;;;;;16.60;15.95;;;;;;;;;;5094704;28;20723;-71
2022/05/19 05:33:42;;;;;;;16.83;16.23;;;;;;;;;;5094990;28;20292;-71
2022/05/19 05:36:09;;;;;;;16.17;15.57;;;;;;;;;;5094826;28;20239;-71
2022/05/19 05:38:36;;;;;;;15.57;14.98;;;;;;;;;;5094580;28;20229;-72
2022/05/19 05:41:04;;;;;;;15.65;15.05;;;;;;;;;;5094562;28;20677;-76
2022/05/19 05:43:31;;;;;;;14.90;14.30;;;;;;;;;;5094739;28;20193;-72
2022/05/19 05:46:04;;;;;;;15.77;15.18;;;;;;;;;;5094739;28;20209;-72
2022/05/19 05:48:31;;;;;;;14.73;14.23;;;;;;;;;;5094452;28;20190;-71
2022/05/19 05:50:57;;;;;;;14.60;14.10;;;;;;;;;;5094635;28;20202;-73
2022/05/19 05:53:24;;;;;;;14.93;14.32;;;;;;;;;;5094577;28;20190;-71
2022/05/19 05:55:51;;;;;;;14.55;14.05;;;;;;;;;;5094211;28;20330;-72
2022/05/19 05:58:19;;;;;;;14.93;14.33;;;;;;;;;;5094971;28;20689;-72
2022/05/19 06:00:45;;;;;;;14.50;14.00;;;;;;;;;;5094156;28;20711;-75
2022/05/19 06:03:12;;;;;;;14.23;13.73;;;;;;;;;;5094430;28;20193;-72
2022/05/19 06:05:39;;;;;;;13.90;13.40;;;;;;;;;;5094344;28;20281;-72
2022/05/19 06:08:06;;;;;;;14.13;13.63;;;;;;;;;;5094300;28;20229;-76
2022/05/19 06:10:33;;;;;;;13.90;13.40;;;;;;;;;;5093707;28;20285;-72
2022/05/19 06:12:59;;;;;;;13.57;13.07;;;;;;;;;;5093962;28;20198;-72
2022/05/19 06:15:27;;;;;;;13.60;13.10;;;;;;;;;;5093790;28;20758;-73
2022/05/19 06:17:54;;;;;;;14.10;13.60;;;;;;;;;;5093868;28;20247;-73
2022/05/19 06:20:21;;;;;;;14.25;13.75;;;;;;;;;;5094062;28;20190;-74
2022/05/19 06:22:48;;;;;;;14.20;13.70;;;;;;;;;;5093953;28;20280;-73
2022/05/19 06:25:16;;;;;;;14.77;14.18;;;;;;;;;;5093969;28;20574;-72
2022/05/19 06:27:43;;;;;;;15.57;14.98;;;;;;;;;;5093895;28;20204;-72
2022/05/19 06:30:12;;;;;;;15.68;15.07;;;;;;;;;;5093551;28;20198;-73
2022/05/19 06:32:41;;;;;;;15.25;14.65;;;;;;;;;;5093527;28;20194;-73
2022/05/19 06:35:08;;;;;;;15.60;15.00;;;;;;;;;;5093418;28;20213;-74
2022/05/19 06:37:35;;;;;;;14.80;14.20;;;;;;;;;;5093436;28;20740;-74
2022/05/19 06:40:02;;;;;;;14.60;14.00;;;;;;;;;;5093362;28;20258;-74
2022/05/19 06:42:28;;;;;;;14.80;14.30;;;;;;;;;;5093303;28;20289;-75
2022/05/19 06:44:56;;;;;;;15.70;15.10;;;;;;;;;;5093621;28;20220;-75
2022/05/19 06:47:22;;;;;;;14.95;14.35;;;;;;;;;;5093527;28;20200;-74
2022/05/19 06:49:52;;;;;;;15.90;15.20;;;;;;;;;;5093505;28;20610;-76
2022/05/19 06:52:19;;;;;;;15.38;14.77;;;;;;;;;;5093105;28;20201;-74
2022/05/19 06:54:46;;;;;;;15.27;14.68;;;;;;;;;;5092624;28;20585;-73
2022/05/19 06:57:13;;;;;;;16.00;15.30;;;;;;;;;;5093285;28;20310;-74
2022/05/19 06:59:40;;;;;;;16.20;15.50;;;;;;;;;;5093298;28;20190;-74
2022/05/19 07:02:06;;;;;;;16.30;15.60;;;;;;;;;;5093264;28;20198;-74
2022/05/19 07:04:33;;;;;;;16.20;15.50;;;;;;;;;;5092901;28;20744;-74
2022/05/19 07:07:02;;;;;;;17.55;16.75;;;;;;;;;;5092866;28;20276;-75
2022/05/19 07:09:28;;;;;;;16.65;15.95;;;;;;;;;;5092784;28;20672;-74
2022/05/19 07:11:55;;;;;;;16.90;16.20;;;;;;;;;;5092632;28;20719;-75
2022/05/19 07:14:22;;;;;;;16.70;16.00;;;;;;;;;;5093099;28;20197;-75
2022/05/19 07:16:49;;;;;;;16.90;16.20;;;;;;;;;;5092566;28;20236;-74
2022/05/19 07:22:01;;;;;;;16.58;15.88;;;;;;;;;;5093283;28;20550;-72
2022/05/19 07:24:28;;;;;;;16.60;15.90;;;;;;;;;;5092576;28;20251;-75
2022/05/19 07:26:55;;;;;;;17.02;16.33;;;;;;;;;;5092848;28;20221;-74
2022/05/19 07:29:23;;;;;;;17.80;17.10;;;;;;;;;;5092846;28;20574;-74
2022/05/19 07:31:50;;;;;;;17.80;17.10;;;;;;;;;;5092747;28;20197;-75
2022/05/19 07:34:19;;;;;;;18.15;17.35;;;;;;;;;;5092472;28;20284;-74
2022/05/19 07:36:47;;;;;;;17.95;17.15;;;;;;;;;;5092317;28;20257;-76
2022/05/19 07:39:15;;;;;;;17.88;17.08;;;;;;;;;;5092403;28;20200;-74
2022/05/19 07:41:42;;;;;;;18.05;17.25;;;;;;;;;;5092646;28;20193;-75
2022/05/19 07:44:10;;;;;;;18.15;17.35;;;;;;;;;;5092284;28;20194;-76
2022/05/19 07:46:37;;;;;;;18.00;17.20;;;;;;;;;;5092581;28;20229;-76
2022/05/19 07:49:04;;;;;;;18.02;17.23;;;;;;;;;;5092265;28;20665;-77
2022/05/19 07:51:36;;;;;;;17.98;17.27;;;;;;;;;;5092492;28;20205;-76
2022/05/19 07:54:03;;;;;;;18.55;17.75;;;;;;;;;;5092539;28;20182;-76
2022/05/19 07:56:31;;;;;;;17.92;17.13;;;;;;;;;;5092336;28;20261;-76
2022/05/19 07:58:58;;;;;;;18.17;17.38;;;;;;;;;;5092428;28;20198;-76
2022/05/19 08:01:25;;;;;;;18.15;17.45;;;;;;;;;;5092269;28;20573;-74
2022/05/19 08:03:52;;;;;;;18.13;17.42;;;;;;;;;;5092663;28;20198;-74
2022/05/19 08:06:18;;;;;;;18.48;17.67;;;;;;;;;;5093713;28;20194;-75
2022/05/19 08:08:45;;;;;;;18.92;18.13;;;;;;;;;;5096299;28;20196;-76
2022/05/19 08:11:12;;;;;;;19.20;18.40;;;;;;;;;;5096058;28;20365;-78
2022/05/19 08:16:24;;;;;;;18.42;17.63;;;;;;;;;;5096746;28;20263;-75
2022/05/19 08:18:51;;;;;;;19.15;18.35;;;;;;;;;;5096072;28;20292;-78
2022/05/19 08:21:18;;;;;;;19.02;18.23;;;;;;;;;;5096087;28;20286;-76
2022/05/19 08:23:45;;;;;;;18.27;17.48;;;;;;;;;;5095932;28;20196;-77
2022/05/19 08:26:12;;;;;;;18.70;17.88;;;;;;;;;;5095988;28;20205;-78
2022/05/19 08:28:41;;;;;;;18.77;17.98;;;;;;;;;;5096238;28;20202;-76
2022/05/19 08:31:09;;;;;;;18.70;17.90;;;;;;;;;;5095865;28;20285;-75
2022/05/19 08:33:36;;;;;;;18.67;17.88;;;;;;;;;;5096113;28;20190;-78
2022/05/19 08:36:03;;;;;;;17.90;17.10;;;;;;;;;;5095637;28;20275;-76
2022/05/19 08:38:30;;;;;;;18.42;17.63;;;;;;;;;;5095707;28;20197;-74
2022/05/19 08:41:01;;;;;;;17.70;16.90;;;;;;;;;;5095955;28;20284;-75
2022/05/19 08:43:31;;;;;;;17.65;16.85;;;;;;;;;;5096010;28;20204;-77
2022/05/19 08:46:01;;;;;;;17.60;16.80;;;;;;;;;;5095609;28;20678;-77
2022/05/19 08:48:28;;;;;;;17.35;16.55;;;;;;;;;;5095843;28;20200;-76
2022/05/19 08:50:56;;;;;;;17.60;16.80;;;;;;;;;;5095520;28;20672;-76
2022/05/19 08:53:24;;;;;;;17.23;16.42;;;;;;;;;;5095685;28;20198;-77
2022/05/19 08:55:53;;;;;;;17.13;16.33;;;;;;;;;;5095302;28;20280;-77
2022/05/19 08:58:30;;;;;;;17.23;16.42;;;;;;;;;;5095302;28;20236;-78
2022/05/19 09:01:00;;;;;;;16.80;16.08;;;;;;;;;;5095378;28;20197;-76
2022/05/19 09:03:31;;;;;;;17.15;16.35;;;;;;;;;;5095435;28;20289;-78
2022/05/19 09:06:05;;;;;;;16.65;15.95;;;;;;;;;;5095538;28;20666;-79
2022/05/19 09:08:37;;;;;;;16.33;15.63;;;;;;;;;;5095463;28;20272;-78
2022/05/19 09:11:08;;;;;;;16.10;15.40;;;;;;;;;;5095042;28;20312;-76
2022/05/19 09:13:37;;;;;;;16.17;15.48;;;;;;;;;;5095329;28;20194;-76
2022/05/19 09:16:08;;;;;;;16.70;15.90;;;;;;;;;;5095482;28;20597;-78
2022/05/19 09:18:38;;;;;;;16.40;15.70;;;;;;;;;;5094775;28;20197;-76
2022/05/19 09:21:05;;;;;;;16.58;15.88;;;;;;;;;;5095233;28;20225;-77
2022/05/19 09:23:33;;;;;;;16.58;15.88;;;;;;;;;;5095164;28;20792;-76
2022/05/19 09:26:02;;;;;;;16.45;15.75;;;;;;;;;;5095123;28;20280;-75
2022/05/19 09:28:30;;;;;;;16.25;15.55;;;;;;;;;;5095093;28;20201;-74
2022/05/19 09:30:57;;;;;;;17.20;16.40;;;;;;;;;;5094755;28;20548;-75
2022/05/19 09:33:31;;;;;;;16.48;15.77;;;;;;;;;;5095253;28;20197;-75
2022/05/19 09:36:00;;;;;;;16.10;15.45;;;;;;;;;;5094890;28;20188;-76
2022/05/19 09:38:31;;;;;;;16.10;15.50;;;;;;;;;;5094633;28;20247;-79
2022/05/19 09:41:00;;;;;;;15.82;15.23;;;;;;;;;;5094943;28;20220;-78
2022/05/19 09:43:28;;;;;;;15.85;15.25;;;;;;;;;;5094840;28;20276;-76
2022/05/19 09:46:03;;;;;;;16.20;15.50;;;;;;;;;;5095070;28;20194;-77
2022/05/19 09:48:33;;;;;;;16.20;15.50;;;;;;;;;;5094828;28;20247;-73
2022/05/19 09:51:04;;;;;;;16.38;15.68;;;;;;;;;;5094430;28;20190;-74
2022/05/19 09:53:36;;;;;;;16.15;15.45;;;;;;;;;;5094560;28;20201;-77
2022/05/19 09:56:04;;;;;;;15.98;15.38;;;;;;;;;;5094245;28;20221;-77
2022/05/19 09:58:32;;;;;;;15.63;15.02;;;;;;;;;;5094201;28;20671;-74
2022/05/19 10:00:59;;;;;;;16.13;15.52;;;;;;;;;;5094504;28;20250;-77
2022/05/19 10:03:27;;;;;;;15.85;15.25;;;;;;;;;;5094056;28;20280;-76
2022/05/19 10:05:55;;;;;;;16.13;15.52;;;;;;;;;;5094961;28;20655;-73
2022/05/19 10:08:25;;;;;;;16.38;15.68;;;;;;;;;;5093991;28;20229;-75
2022/05/19 10:10:56;;;;;;;16.30;15.70;;;;;;;;;;5094091;28;20228;-75
2022/05/19 10:13:27;;;;;;;16.13;15.52;;;;;;;;;;5094254;28;20265;-73
2022/05/19 10:15:57;;;;;;;15.77;15.18;;;;;;;;;;5094190;28;20710;-73
2022/05/19 10:18:39;;;;;;;15.77;15.18;;;;;;;;;;5094104;28;20236;-75
2022/05/19 10:21:10;;;;;;;15.80;15.20;;;;;;;;;;5094167;28;20299;-75
2022/05/19 10:23:45;;;;;;;15.55;14.95;;;;;;;;;;5094061;28;20630;-74
2022/05/19 10:26:19;;;;;;;15.70;15.10;;;;;;;;;;5093677;28;20278;-79
2022/05/19 10:31:49;;;;;;;15.48;14.88;;;;;;;;;;5093928;28;20319;-71
2022/05/19 10:34:25;;;;;;;15.68;15.07;;;;;;;;;;5093556;28;20277;-73
2022/05/19 10:36:54;;;;;;;15.65;15.05;;;;;;;;;;5093770;28;20245;-71
2022/05/19 10:39:32;;;;;;;15.50;14.90;;;;;;;;;;5093749;28;20233;-77
2022/05/19 10:42:04;;;;;;;15.50;14.90;;;;;;;;;;5093406;28;20272;-76
2022/05/19 10:44:49;;;;;;;15.60;15.00;;;;;;;;;;5093659;28;20194;-74
2022/05/19 10:47:23;;;;;;;15.60;15.00;;;;;;;;;;5086191;28;20194;-73
2022/05/19 10:49:57;;;;;;;15.15;14.55;;;;;;;;;;5093608;28;20225;-77
2022/05/19 10:52:28;;;;;;;15.55;14.95;;;;;;;;;;5093411;28;20277;-76
2022/05/19 10:55:04;;;;;;;15.50;14.90;;;;;;;;;;5093163;28;20226;-77
2022/05/19 10:57:42;;;;;;;15.63;15.02;;;;;;;;;;5093309;28;20224;-74
2022/05/19 11:00:15;;;;;;;15.60;15.00;;;;;;;;;;5093393;28;20185;-74
2022/05/19 11:02:54;;;;;;;15.63;15.02;;;;;;;;;;5093006;28;20190;-75
2022/05/19 11:05:34;;;;;;;15.40;14.80;;;;;;;;;;5092995;28;20224;-74
2022/05/19 11:08:04;;;;;;;15.70;15.10;;;;;;;;;;5092926;28;20190;-72
2022/05/19 11:10:37;;;;;;;15.55;14.95;;;;;;;;;;5092973;28;20651;-76
2022/05/19 11:13:13;;;;;;;15.60;15.00;;;;;;;;;;5093197;28;20620;-75
2022/05/19 11:15:42;;;;;;;15.48;14.88;;;;;;;;;;5093655;28;20238;-80
2022/05/19 11:18:13;;;;;;;15.65;15.05;;;;;;;;;;5093076;28;20221;-75
2022/05/19 11:20:43;;;;;;;15.35;14.75;;;;;;;;;;5092753;28;20190;-72
2022/05/19 11:23:12;;;;;;;15.18;14.57;;;;;;;;;;5092713;28;20190;-72
2022/05/19 11:28:29;;;;;;;15.27;14.68;;;;;;;;;;5093044;28;20252;-74
2022/05/19 11:30:59;;;;;;;15.60;15.00;;;;;;;;;;5092801;28;20272;-79
2022/05/19 11:33:28;;;;;;;15.35;14.75;;;;;;;;;;5093365;28;20190;-74
2022/05/19 11:35:57;;;;;;;15.07;14.48;;;;;;;;;;5092742;28;20194;-78
2022/05/19 11:38:27;;;;;;;14.88;14.30;;;;;;;;;;5092914;28;20255;-73
2022/05/19 11:40:57;;;;;;;15.23;14.63;;;;;;;;;;5092519;28;20197;-73
2022/05/19 11:43:27;;;;;;;15.35;14.75;;;;;;;;;;5092708;28;20635;-74
2022/05/19 11:45:58;;;;;;;15.15;14.55;;;;;;;;;;5092332;28;20196;-72
2022/05/19 11:57:09;;;;;;;15.45;14.85;;;;;;;;;;5092256;28;20227;-73
2022/05/19 11:59:36;;;;;;;15.45;14.85;;;;;;;;;;5092183;28;20273;-72
2022/05/19 12:02:04;;;;;;;15.50;14.90;;;;;;;;;;5092473;28;20201;-77
2022/05/19 12:04:32;;;;;;;15.18;14.57;;;;;;;;;;5092073;28;20194;-75
2022/05/19 12:07:04;;;;;;;15.68;15.07;;;;;;;;;;5092132;28;20198;-77
2022/05/19 12:09:31;;;;;;;15.27;14.68;;;;;;;;;;5092032;28;20233;-76
2022/05/19 12:11:59;;;;;;;15.30;14.70;;;;;;;;;;5092228;28;20229;-78
2022/05/19 12:14:38;;;;;;;15.25;14.65;;;;;;;;;;5092253;28;20280;-79
2022/05/19 12:17:11;;;;;;;15.50;14.90;;;;;;;;;;5092280;28;20217;-73
2022/05/19 12:19:39;;;;;;;15.20;14.60;;;;;;;;;;5092270;28;20182;-72
2022/05/19 12:22:06;;;;;;;15.38;14.77;;;;;;;;;;5092303;28;20233;-71
2022/05/19 12:24:36;;;;;;;15.23;14.63;;;;;;;;;;5091902;28;20193;-72
2022/05/19 12:27:10;;;;;;;15.20;14.60;;;;;;;;;;5092162;28;20232;-83
2022/05/19 12:29:43;;;;;;;15.32;14.73;;;;;;;;;;5091919;28;20651;-73
2022/05/19 12:32:21;;;;;;;15.88;15.18;;;;;;;;;;5092134;28;20190;-71
2022/05/19 12:34:49;;;;;;;15.60;15.00;;;;;;;;;;5092188;28;20283;-80
2022/05/19 12:37:36;;;;;;;15.30;14.70;;;;;;;;;;5091777;28;20225;-79
2022/05/19 12:40:18;;;;;;;15.52;14.93;;;;;;;;;;5091790;28;20654;-78
2022/05/19 12:42:45;;;;;;;15.73;15.13;;;;;;;;;;5092091;28;20248;-77
2022/05/19 12:45:17;;;;;;;15.80;15.20;;;;;;;;;;5091978;28;20335;-72
2022/05/19 12:47:55;;;;;;;15.63;15.02;;;;;;;;;;5091907;28;20190;-76
2022/05/19 12:50:25;;;;;;;15.82;15.23;;;;;;;;;;5091703;28;20182;-73
2022/05/19 12:53:04;;;;;;;15.82;15.23;;;;;;;;;;5094155;28;20186;-73
2022/05/19 12:55:33;;;;;;;15.93;15.32;;;;;;;;;;5095780;28;20259;-74
2022/05/19 12:58:20;;;;;;;15.73;15.13;;;;;;;;;;5095635;28;20225;-72
2022/05/19 13:00:49;;;;;;;15.82;15.23;;;;;;;;;;5095317;28;20233;-75
2022/05/19 13:03:16;;;;;;;15.60;15.00;;;;;;;;;;5095545;28;20194;-72
2022/05/19 13:05:46;;;;;;;15.85;15.25;;;;;;;;;;5095278;28;20204;-72
2022/05/19 13:08:15;;;;;;;15.85;15.25;;;;;;;;;;5095579;28;20285;-81
2022/05/19 13:10:43;;;;;;;15.95;15.35;;;;;;;;;;5095312;28;20202;-83
2022/05/19 13:13:17;;;;;;;15.65;15.05;;;;;;;;;;5095554;28;20186;-79
2022/05/19 13:15:50;;;;;;;15.85;15.25;;;;;;;;;;5095405;28;20190;-82
2022/05/19 13:18:17;;;;;;;16.20;15.50;;;;;;;;;;5095016;28;20218;-79
2022/05/19 13:20:44;;;;;;;16.02;15.43;;;;;;;;;;5095521;28;20240;-73
2022/05/19 13:23:19;;;;;;;15.55;14.95;;;;;;;;;;5094967;28;20247;-72
2022/05/19 13:25:48;;;;;;;15.48;14.88;;;;;;;;;;5094893;28;20188;-80
2022/05/19 13:31:04;;;;;;;15.43;14.82;;;;;;;;;;5095168;28;20235;-72
2022/05/19 13:33:36;;;;;;;15.40;14.80;;;;;;;;;;5094746;28;20200;-78
2022/05/19 13:36:05;;;;;;;15.43;14.82;;;;;;;;;;5095034;28;20190;-73
2022/05/19 13:38:32;;;;;;;15.60;15.00;;;;;;;;;;5094864;28;20225;-73
2022/05/19 13:40:59;;;;;;;15.52;14.93;;;;;;;;;;5094882;28;20190;-74
2022/05/19 13:43:29;;;;;;;15.35;14.75;;;;;;;;;;5094569;28;20680;-72
2022/05/19 13:45:57;;;;;;;15.75;15.15;;;;;;;;;;5095881;28;20217;-72
2022/05/19 13:48:30;;;;;;;15.20;14.60;;;;;;;;;;5094787;28;20266;-70
2022/05/19 13:50:58;;;;;;;15.10;14.50;;;;;;;;;;5094668;28;20193;-73
2022/05/19 13:53:25;;;;;;;15.25;14.65;;;;;;;;;;5094689;28;20243;-80
2022/05/19 13:55:55;;;;;;;15.18;14.57;;;;;;;;;;5094623;28;20613;-72
2022/05/19 13:58:23;;;;;;;15.35;14.75;;;;;;;;;;5094163;28;20228;-72
2022/05/19 14:00:50;;;;;;;15.38;14.77;;;;;;;;;;5094215;28;20594;-72
2022/05/19 14:03:17;;;;;;;15.27;14.68;;;;;;;;;;5093020;28;20679;-72
2022/05/19 14:05:46;;;;;;;15.23;14.63;;;;;;;;;;5094423;28;20194;-72
2022/05/19 14:08:13;;;;;;;15.07;14.52;;;;;;;;;;5094392;28;20230;-72
2022/05/19 14:10:42;;;;;;;15.05;14.45;;;;;;;;;;5094144;28;20189;-72
2022/05/19 14:13:11;;;;;;;15.15;14.55;;;;;;;;;;5094080;28;20221;-73
2022/05/19 14:15:40;;;;;;;15.25;14.65;;;;;;;;;;5093892;28;20194;-72
2022/05/19 14:18:08;;;;;;;15.18;14.57;;;;;;;;;;5094111;28;20230;-72
2022/05/19 14:20:40;;;;;;;15.15;14.55;;;;;;;;;;5094139;28;20704;-72
2022/05/19 14:23:11;;;;;;;15.20;14.60;;;;;;;;;;5093843;28;20225;-76
2022/05/19 14:25:38;;;;;;;15.13;14.52;;;;;;;;;;5094028;28;20196;-72
2022/05/19 14:28:08;;;;;;;15.10;14.50;;;;;;;;;;5093977;28;20198;-72
2022/05/19 14:30:38;;;;;;;15.40;14.80;;;;;;;;;;5094439;28;20226;-72
2022/05/19 14:33:06;;;;;;;15.18;14.57;;;;;;;;;;5093640;28;20190;-77
2022/05/19 14:35:44;;;;;;;15.32;14.73;;;;;;;;;;5093844;28;20224;-71
2022/05/19 14:38:17;;;;;;;15.35;14.75;;;;;;;;;;5093439;28;20205;-72
2022/05/19 14:43:28;;;;;;;15.55;14.95;;;;;;;;;;5094112;28;20367;-72
2022/05/19 14:45:56;;;;;;;15.05;14.45;;;;;;;;;;5093510;28;20198;-73
2022/05/19 14:48:25;;;;;;;15.98;15.38;;;;;;;;;;5093580;28;20229;-74
2022/05/19 14:50:52;;;;;;;15.40;14.80;;;;;;;;;;5093573;28;20236;-73